createdAt,value
2018-04-27T00:00:07.600Z,995.88
2018-04-27T00:01:07.597Z,995.89
2018-04-27T00:02:07.565Z,995.87
2018-04-27T00:03:07.543Z,995.85
2018-04-27T00:04:07.524Z,995.85
2018-04-27T00:05:07.539Z,995.89
2018-04-27T00:06:07.485Z,995.88
2018-04-27T00:07:07.488Z,995.88
2018-04-27T00:08:07.446Z,995.87
2018-04-27T00:09:07.431Z,995.91
2018-04-27T00:10:07.397Z,995.90
2018-04-27T00:11:07.385Z,995.89
2018-04-27T00:12:07.362Z,995.87
2018-04-27T00:13:07.359Z,995.89
2018-04-27T00:14:07.322Z,995.87
2018-04-27T00:15:07.296Z,995.91
2018-04-27T00:16:07.284Z,995.91
2018-04-27T00:17:07.254Z,995.87
2018-04-27T00:18:07.238Z,995.90
2018-04-27T00:19:07.220Z,995.89
2018-04-27T00:20:07.196Z,995.89
2018-04-27T00:21:07.190Z,995.85
2018-04-27T00:22:07.164Z,995.85
2018-04-27T00:23:07.160Z,995.83
2018-04-27T00:24:07.126Z,995.79
2018-04-27T00:25:07.103Z,995.82
2018-04-27T00:26:07.072Z,995.81
2018-04-27T00:27:07.066Z,995.81
2018-04-27T00:28:07.035Z,995.87
2018-04-27T00:29:07.013Z,995.84
2018-04-27T00:30:07.000Z,995.85
2018-04-27T00:31:06.965Z,995.77
2018-04-27T00:32:06.953Z,995.79
2018-04-27T00:33:06.943Z,995.79
2018-04-27T00:34:06.914Z,995.76
2018-04-27T00:35:06.885Z,995.79
2018-04-27T00:36:06.870Z,995.82
2018-04-27T00:37:06.876Z,995.80
2018-04-27T00:38:06.824Z,995.82
2018-04-27T00:39:06.814Z,995.80
2018-04-27T00:40:06.785Z,995.83
2018-04-27T00:41:06.782Z,995.80
2018-04-27T00:42:06.759Z,995.81
2018-04-27T00:43:06.730Z,995.77
2018-04-27T00:44:06.705Z,995.79
2018-04-27T00:45:06.715Z,995.76
2018-04-27T00:46:06.667Z,995.76
2018-04-27T00:47:06.644Z,995.75
2018-04-27T00:48:06.628Z,995.77
2018-04-27T00:49:06.606Z,995.76
2018-04-27T00:50:06.590Z,995.77
2018-04-27T00:51:06.565Z,995.75
2018-04-27T00:52:06.549Z,995.73
2018-04-27T00:53:06.520Z,995.71
2018-04-27T00:54:06.510Z,995.73
2018-04-27T00:55:06.497Z,995.72
2018-04-27T00:56:06.462Z,995.71
2018-04-27T00:57:06.446Z,995.69
2018-04-27T00:58:06.429Z,995.66
2018-04-27T00:59:06.404Z,995.64
2018-04-27T01:00:06.379Z,995.59
2018-04-27T01:01:06.360Z,995.62
2018-04-27T01:02:06.366Z,995.59
2018-04-27T01:03:06.331Z,995.56
2018-04-27T01:04:06.301Z,995.56
2018-04-27T01:05:06.287Z,995.57
2018-04-27T01:06:06.264Z,995.53
2018-04-27T01:07:06.258Z,995.52
2018-04-27T01:08:06.216Z,995.51
2018-04-27T01:09:06.206Z,995.52
2018-04-27T01:10:06.177Z,995.51
2018-04-27T01:11:06.151Z,995.54
2018-04-27T01:12:06.145Z,995.55
2018-04-27T01:13:06.126Z,995.54
2018-04-27T01:14:06.100Z,995.47
2018-04-27T01:15:06.072Z,995.48
2018-04-27T01:16:06.069Z,995.48
2018-04-27T01:17:06.032Z,995.53
2018-04-27T01:18:06.032Z,995.49
2018-04-27T01:19:05.999Z,995.50
2018-04-27T01:20:05.990Z,995.49
2018-04-27T01:21:05.955Z,995.46
2018-04-27T01:22:05.932Z,995.48
2018-04-27T01:23:05.914Z,995.46
2018-04-27T01:24:05.894Z,995.46
2018-04-27T01:25:05.875Z,995.49
2018-04-27T01:26:05.846Z,995.45
2018-04-27T01:27:05.850Z,995.45
2018-04-27T01:28:05.808Z,995.44
2018-04-27T01:29:05.795Z,995.46
2018-04-27T01:30:05.764Z,995.46
2018-04-27T01:31:05.755Z,995.45
2018-04-27T01:32:05.727Z,995.44
2018-04-27T01:33:05.711Z,995.39
2018-04-27T01:34:05.689Z,995.43
2018-04-27T01:35:05.666Z,995.42
2018-04-27T01:36:05.650Z,995.41
2018-04-27T01:37:05.625Z,995.41
2018-04-27T01:38:05.615Z,995.43
2018-04-27T01:39:05.595Z,995.39
2018-04-27T01:40:05.643Z,995.40
2018-04-27T01:41:05.540Z,995.43
2018-04-27T01:42:05.522Z,995.43
2018-04-27T01:43:05.498Z,995.44
2018-04-27T01:44:05.523Z,995.46
2018-04-27T01:45:05.485Z,995.45
2018-04-27T01:46:05.447Z,995.45
2018-04-27T01:47:05.425Z,995.45
2018-04-27T01:48:05.403Z,995.46
2018-04-27T01:49:05.390Z,995.44
2018-04-27T01:50:05.361Z,995.48
2018-04-27T01:51:05.361Z,995.47
2018-04-27T01:52:05.317Z,995.47
2018-04-27T01:53:05.305Z,995.48
2018-04-27T01:54:05.288Z,995.53
2018-04-27T01:55:05.256Z,995.47
2018-04-27T01:56:05.241Z,995.46
2018-04-27T01:57:05.228Z,995.46
2018-04-27T01:58:05.196Z,995.47
2018-04-27T01:59:05.177Z,995.47
2018-04-27T02:00:05.147Z,995.46
2018-04-27T02:01:05.132Z,995.46
2018-04-27T02:02:05.122Z,995.44
2018-04-27T02:03:05.096Z,995.47
2018-04-27T02:04:05.074Z,995.44
2018-04-27T02:05:05.070Z,995.42
2018-04-27T02:06:05.032Z,995.40
2018-04-27T02:07:05.012Z,995.42
2018-04-27T02:08:04.999Z,995.40
2018-04-27T02:09:04.964Z,995.38
2018-04-27T02:10:04.948Z,995.38
2018-04-27T02:11:04.935Z,995.39
2018-04-27T02:12:04.983Z,995.39
2018-04-27T02:13:04.887Z,995.38
2018-04-27T02:14:04.859Z,995.35
2018-04-27T02:15:04.847Z,995.36
2018-04-27T02:16:04.821Z,995.35
2018-04-27T02:17:04.806Z,995.32
2018-04-27T02:18:04.773Z,995.32
2018-04-27T02:19:04.754Z,995.34
2018-04-27T02:20:04.735Z,995.29
2018-04-27T02:21:04.722Z,995.31
2018-04-27T02:22:04.700Z,995.30
2018-04-27T02:23:04.671Z,995.30
2018-04-27T02:24:04.654Z,995.28
2018-04-27T02:25:04.636Z,995.26
2018-04-27T02:26:04.613Z,995.29
2018-04-27T02:27:04.597Z,995.29
2018-04-27T02:28:04.571Z,995.28
2018-04-27T02:29:04.558Z,995.30
2018-04-27T02:30:04.534Z,995.25
2018-04-27T02:31:04.511Z,995.25
2018-04-27T02:32:04.488Z,995.25
2018-04-27T02:33:04.472Z,995.20
2018-04-27T02:34:04.455Z,995.20
2018-04-27T02:35:04.432Z,995.18
2018-04-27T02:36:04.403Z,995.21
2018-04-27T02:37:04.393Z,995.23
2018-04-27T02:38:04.377Z,995.20
2018-04-27T02:39:04.341Z,995.19
2018-04-27T02:40:04.331Z,995.18
2018-04-27T02:41:04.306Z,995.13
2018-04-27T02:42:04.274Z,995.14
2018-04-27T02:43:04.264Z,995.14
2018-04-27T02:44:04.238Z,995.15
2018-04-27T02:45:04.219Z,995.11
2018-04-27T02:46:04.190Z,995.06
2018-04-27T02:47:04.168Z,995.07
2018-04-27T02:48:04.157Z,995.06
2018-04-27T02:49:04.149Z,995.08
2018-04-27T02:50:04.114Z,995.04
2018-04-27T02:51:04.108Z,995.01
2018-04-27T02:52:04.070Z,994.97
2018-04-27T02:53:04.056Z,994.99
2018-04-27T02:54:04.028Z,994.96
2018-04-27T02:55:04.018Z,994.91
2018-04-27T02:56:03.997Z,994.91
2018-04-27T02:57:03.960Z,994.86
2018-04-27T02:58:03.948Z,994.87
2018-04-27T02:59:03.929Z,994.83
2018-04-27T03:00:03.904Z,994.81
2018-04-27T03:01:03.878Z,994.79
2018-04-27T03:02:03.862Z,994.75
2018-04-27T03:03:03.848Z,994.76
2018-04-27T03:04:03.820Z,994.77
2018-04-27T03:05:03.806Z,994.77
2018-04-27T03:06:03.778Z,994.73
2018-04-27T03:07:03.756Z,994.74
2018-04-27T03:08:03.737Z,994.74
2018-04-27T03:09:03.714Z,994.72
2018-04-27T03:10:03.698Z,994.68
2018-04-27T03:11:03.672Z,994.73
2018-04-27T03:12:03.656Z,994.68
2018-04-27T03:13:03.656Z,994.66
2018-04-27T03:14:03.613Z,994.66
2018-04-27T03:15:03.597Z,994.62
2018-04-27T03:16:03.568Z,994.55
2018-04-27T03:17:03.559Z,994.56
2018-04-27T03:18:03.526Z,994.56
2018-04-27T03:19:03.514Z,994.56
2018-04-27T03:20:03.481Z,994.55
2018-04-27T03:21:03.463Z,994.59
2018-04-27T03:22:03.444Z,994.60
2018-04-27T03:23:03.418Z,994.56
2018-04-27T03:24:03.433Z,994.57
2018-04-27T03:25:03.374Z,994.55
2018-04-27T03:26:04.134Z,994.50
2018-04-27T03:27:03.331Z,994.54
2018-04-27T03:28:03.319Z,994.53
2018-04-27T03:29:03.307Z,994.51
2018-04-27T03:30:03.298Z,994.56
2018-04-27T03:31:03.259Z,994.58
2018-04-27T03:32:03.256Z,994.56
2018-04-27T03:33:03.204Z,994.52
2018-04-27T03:34:03.188Z,994.54
2018-04-27T03:35:03.166Z,994.54
2018-04-27T03:36:03.639Z,994.56
2018-04-27T03:37:03.140Z,994.58
2018-04-27T03:38:03.105Z,994.61
2018-04-27T03:39:03.099Z,994.59
2018-04-27T03:40:03.060Z,994.58
2018-04-27T03:41:03.054Z,994.57
2018-04-27T03:42:03.039Z,994.58
2018-04-27T03:43:03.013Z,994.59
2018-04-27T03:44:02.990Z,994.53
2018-04-27T03:45:02.965Z,994.56
2018-04-27T03:46:02.943Z,994.51
2018-04-27T03:47:02.936Z,994.51
2018-04-27T03:48:02.900Z,994.48
2018-04-27T03:49:02.885Z,994.50
2018-04-27T03:50:02.856Z,994.50
2018-04-27T03:51:02.843Z,994.51
2018-04-27T03:52:02.847Z,994.47
2018-04-27T03:53:02.834Z,994.47
2018-04-27T03:54:02.779Z,994.49
2018-04-27T03:55:02.767Z,994.49
2018-04-27T03:56:02.746Z,994.50
2018-04-27T03:57:02.706Z,994.47
2018-04-27T03:58:02.692Z,994.44
2018-04-27T03:59:02.677Z,994.46
2018-04-27T04:00:02.658Z,994.38
2018-04-27T04:01:02.648Z,994.39
2018-04-27T04:02:02.628Z,994.37
2018-04-27T04:03:03.147Z,994.36
2018-04-27T04:04:02.575Z,994.32
2018-04-27T04:05:02.562Z,994.32
2018-04-27T04:06:02.529Z,994.31
2018-04-27T04:07:02.505Z,994.29
2018-04-27T04:08:02.480Z,994.26
2018-04-27T04:09:02.474Z,994.26
2018-04-27T04:10:02.450Z,994.23
2018-04-27T04:11:02.424Z,994.26
2018-04-27T04:12:02.413Z,994.26
2018-04-27T04:13:02.383Z,994.22
2018-04-27T04:14:02.385Z,994.19
2018-04-27T04:15:02.341Z,994.17
2018-04-27T04:16:02.327Z,994.14
2018-04-27T04:17:02.297Z,994.13
2018-04-27T04:18:02.280Z,994.07
2018-04-27T04:19:02.257Z,994.07
2018-04-27T04:20:02.238Z,994.09
2018-04-27T04:21:02.234Z,994.11
2018-04-27T04:22:02.201Z,994.11
2018-04-27T04:23:02.171Z,994.09
2018-04-27T04:24:02.180Z,994.07
2018-04-27T04:25:02.122Z,994.11
2018-04-27T04:26:02.116Z,994.10
2018-04-27T04:27:02.094Z,994.08
2018-04-27T04:28:02.071Z,994.05
2018-04-27T04:29:02.056Z,994.05
2018-04-27T04:30:02.022Z,994.05
2018-04-27T04:31:02.025Z,993.98
2018-04-27T04:32:01.990Z,994.00
2018-04-27T04:33:01.967Z,993.94
2018-04-27T04:34:01.936Z,993.96
2018-04-27T04:35:01.932Z,993.93
2018-04-27T04:36:01.902Z,993.94
2018-04-27T04:37:01.891Z,993.94
2018-04-27T04:38:01.878Z,993.93
2018-04-27T04:39:01.835Z,993.92
2018-04-27T04:40:01.821Z,993.93
2018-04-27T04:41:01.807Z,993.92
2018-04-27T04:42:01.775Z,993.90
2018-04-27T04:43:01.756Z,993.91
2018-04-27T04:44:01.741Z,993.90
2018-04-27T04:45:01.810Z,993.91
2018-04-27T04:46:01.698Z,993.86
2018-04-27T04:47:01.686Z,993.89
2018-04-27T04:48:01.654Z,993.88
2018-04-27T04:49:01.635Z,993.90
2018-04-27T04:50:01.644Z,993.94
2018-04-27T04:51:01.587Z,993.92
2018-04-27T04:52:01.571Z,993.97
2018-04-27T04:53:01.567Z,993.97
2018-04-27T04:54:01.529Z,993.95
2018-04-27T04:55:01.504Z,993.94
2018-04-27T04:56:01.506Z,993.96
2018-04-27T04:57:01.465Z,993.98
2018-04-27T04:58:01.451Z,993.96
2018-04-27T04:59:01.416Z,993.97
2018-04-27T05:00:01.403Z,993.97
2018-04-27T05:01:01.381Z,993.94
2018-04-27T05:02:02.158Z,993.95
2018-04-27T05:03:01.431Z,994.01
2018-04-27T05:04:01.317Z,994.00
2018-04-27T05:05:01.300Z,994.01
2018-04-27T05:06:01.276Z,994.00
2018-04-27T05:07:02.151Z,994.04
2018-04-27T05:08:01.239Z,993.99
2018-04-27T05:09:01.213Z,993.97
2018-04-27T05:10:01.194Z,994.00
2018-04-27T05:11:01.191Z,994.00
2018-04-27T05:12:01.152Z,994.02
2018-04-27T05:13:01.136Z,994.05
2018-04-27T05:14:01.119Z,994.05
2018-04-27T05:15:01.102Z,994.08
2018-04-27T05:16:01.069Z,994.03
2018-04-27T05:17:01.056Z,994.01
2018-04-27T05:18:01.028Z,994.01
2018-04-27T05:19:01.021Z,994.04
2018-04-27T05:20:00.996Z,994.02
2018-04-27T05:21:00.970Z,994.07
2018-04-27T05:22:00.954Z,994.07
2018-04-27T05:23:00.935Z,994.05
2018-04-27T05:24:00.912Z,994.00
2018-04-27T05:25:00.893Z,993.99
2018-04-27T05:26:00.865Z,993.96
2018-04-27T05:27:00.850Z,993.95
2018-04-27T05:28:00.826Z,993.94
2018-04-27T05:29:00.817Z,993.92
2018-04-27T05:30:00.784Z,993.91
2018-04-27T05:31:00.781Z,993.91
2018-04-27T05:32:00.752Z,993.89
2018-04-27T05:33:00.752Z,993.84
2018-04-27T05:34:00.717Z,993.78
2018-04-27T05:35:00.703Z,993.76
2018-04-27T05:36:00.672Z,993.77
2018-04-27T05:37:00.653Z,993.81
2018-04-27T05:38:00.628Z,993.76
2018-04-27T05:39:00.608Z,993.77
2018-04-27T05:40:00.588Z,993.81
2018-04-27T05:41:00.589Z,993.78
2018-04-27T05:42:00.544Z,993.80
2018-04-27T05:43:00.525Z,993.71
2018-04-27T05:44:00.514Z,993.71
2018-04-27T05:45:00.487Z,993.73
2018-04-27T05:46:00.468Z,993.74
2018-04-27T05:47:00.455Z,993.71
2018-04-27T05:48:00.433Z,993.72
2018-04-27T05:49:00.487Z,993.70
2018-04-27T05:50:00.392Z,993.70
2018-04-27T05:51:00.375Z,993.71
2018-04-27T05:52:00.347Z,993.73
2018-04-27T05:53:00.340Z,993.73
2018-04-27T05:54:00.376Z,993.77
2018-04-27T05:55:00.301Z,993.79
2018-04-27T05:56:00.285Z,993.79
2018-04-27T05:57:00.282Z,993.78
2018-04-27T05:58:00.237Z,993.78
2018-04-27T05:59:00.227Z,993.79
2018-04-27T06:00:00.218Z,993.73
2018-04-27T06:01:00.192Z,993.71
2018-04-27T06:02:00.195Z,993.72
2018-04-27T06:03:00.147Z,993.71
2018-04-27T06:04:00.145Z,993.70
2018-04-27T06:05:00.125Z,993.74
2018-04-27T06:06:00.101Z,993.77
2018-04-27T06:07:00.084Z,993.74
2018-04-27T06:08:00.055Z,993.75
2018-04-27T06:09:00.044Z,993.74
2018-04-27T06:10:00.021Z,993.78
2018-04-27T06:11:00.005Z,993.77
2018-04-27T06:11:59.985Z,993.77
2018-04-27T06:12:59.996Z,993.75
2018-04-27T06:13:59.947Z,993.73
2018-04-27T06:14:59.951Z,993.73
2018-04-27T06:15:59.918Z,993.73
2018-04-27T06:16:59.922Z,993.75
2018-04-27T06:17:59.890Z,993.77
2018-04-27T06:18:59.872Z,993.78
2018-04-27T06:19:59.861Z,993.73
2018-04-27T06:20:59.840Z,993.68
2018-04-27T06:21:59.835Z,993.65
2018-04-27T06:22:59.823Z,993.60
2018-04-27T06:23:59.790Z,993.64
2018-04-27T06:24:59.779Z,993.64
2018-04-27T06:25:59.763Z,993.60
2018-04-27T06:26:59.742Z,993.59
2018-04-27T06:27:59.726Z,993.58
2018-04-27T06:28:59.716Z,993.53
2018-04-27T06:29:59.699Z,993.53
2018-04-27T06:30:59.681Z,993.49
2018-04-27T06:31:59.672Z,993.48
2018-04-27T06:32:59.675Z,993.47
2018-04-27T06:33:59.641Z,993.45
2018-04-27T06:34:59.625Z,993.47
2018-04-27T06:35:59.621Z,993.47
2018-04-27T06:36:59.593Z,993.41
2018-04-27T06:37:59.609Z,993.44
2018-04-27T06:38:59.577Z,993.40
2018-04-27T06:39:59.561Z,993.39
2018-04-27T06:40:59.538Z,993.42
2018-04-27T06:41:59.526Z,993.46
2018-04-27T06:42:59.513Z,993.46
2018-04-27T06:43:59.501Z,993.46
2018-04-27T06:44:59.477Z,993.45
2018-04-27T06:45:59.468Z,993.41
2018-04-27T06:46:59.451Z,993.39
2018-04-27T06:47:59.439Z,993.37
2018-04-27T06:48:59.432Z,993.31
2018-04-27T06:49:59.429Z,993.31
2018-04-27T06:50:59.398Z,993.30
2018-04-27T06:51:59.388Z,993.30
2018-04-27T06:52:59.369Z,993.31
2018-04-27T06:53:59.352Z,993.31
2018-04-27T06:54:59.343Z,993.32
2018-04-27T06:55:59.323Z,993.33
2018-04-27T06:56:59.308Z,993.36
2018-04-27T06:57:59.292Z,993.34
2018-04-27T06:58:59.280Z,993.29
2018-04-27T06:59:59.267Z,993.25
2018-04-27T07:00:59.263Z,993.24
2018-04-27T07:01:59.234Z,993.19
2018-04-27T07:02:59.228Z,993.22
2018-04-27T07:03:59.211Z,993.20
2018-04-27T07:04:59.204Z,993.17
2018-04-27T07:05:59.180Z,993.14
2018-04-27T07:06:59.174Z,993.19
2018-04-27T07:07:59.155Z,993.18
2018-04-27T07:08:59.154Z,993.18
2018-04-27T07:09:59.135Z,993.11
2018-04-27T07:10:59.119Z,993.09
2018-04-27T07:12:00.728Z,993.09
2018-04-27T07:12:59.092Z,993.12
2018-04-27T07:13:59.076Z,993.13
2018-04-27T07:14:59.069Z,993.12
2018-04-27T07:15:59.072Z,993.12
2018-04-27T07:16:59.079Z,993.12
2018-04-27T07:17:59.024Z,993.10
2018-04-27T07:18:59.018Z,993.07
2018-04-27T07:19:59.002Z,993.09
2018-04-27T07:20:59.001Z,993.11
2018-04-27T07:21:58.976Z,993.10
2018-04-27T07:22:58.970Z,993.08
2018-04-27T07:23:58.953Z,993.09
2018-04-27T07:24:58.951Z,993.07
2018-04-27T07:25:59.018Z,993.04
2018-04-27T07:26:58.925Z,993.07
2018-04-27T07:27:58.916Z,993.04
2018-04-27T07:28:58.903Z,993.05
2018-04-27T07:29:58.890Z,993.06
2018-04-27T07:30:58.877Z,993.05
2018-04-27T07:31:58.874Z,993.09
2018-04-27T07:32:58.868Z,993.14
2018-04-27T07:33:58.871Z,993.07
2018-04-27T07:34:58.840Z,993.06
2018-04-27T07:35:58.839Z,993.07
2018-04-27T07:36:58.877Z,993.04
2018-04-27T07:37:58.804Z,993.04
2018-04-27T07:38:58.817Z,993.03
2018-04-27T07:39:58.788Z,993.06
2018-04-27T07:40:58.789Z,993.05
2018-04-27T07:41:58.769Z,993.06
2018-04-27T07:42:58.762Z,993.08
2018-04-27T07:43:58.756Z,993.06
2018-04-27T07:44:58.740Z,993.09
2018-04-27T07:45:58.734Z,993.06
2018-04-27T07:46:58.707Z,993.02
2018-04-27T07:47:58.701Z,993.06
2018-04-27T07:48:58.696Z,993.01
2018-04-27T07:49:58.679Z,993.05
2018-04-27T07:50:58.679Z,993.02
2018-04-27T07:51:58.662Z,993.04
2018-04-27T07:52:58.651Z,993.02
2018-04-27T07:53:58.659Z,992.99
2018-04-27T07:54:58.639Z,993.00
2018-04-27T07:55:58.625Z,992.98
2018-04-27T07:56:58.622Z,992.94
2018-04-27T07:57:58.613Z,992.94
2018-04-27T07:58:58.602Z,992.89
2018-04-27T07:59:58.590Z,992.94
2018-04-27T08:00:58.584Z,992.94
2018-04-27T08:01:58.604Z,992.91
2018-04-27T08:02:58.642Z,992.91
2018-04-27T08:03:58.545Z,992.93
2018-04-27T08:04:58.548Z,992.92
2018-04-27T08:05:58.533Z,992.83
2018-04-27T08:06:58.527Z,992.86
2018-04-27T08:07:58.527Z,992.82
2018-04-27T08:08:58.519Z,992.84
2018-04-27T08:09:58.494Z,992.76
2018-04-27T08:10:58.505Z,992.82
2018-04-27T08:11:58.479Z,992.75
2018-04-27T08:12:58.467Z,992.80
2018-04-27T08:13:58.463Z,992.79
2018-04-27T08:14:58.447Z,992.76
2018-04-27T08:15:58.444Z,992.73
2018-04-27T08:16:58.438Z,992.66
2018-04-27T08:17:58.429Z,992.71
2018-04-27T08:18:58.416Z,992.70
2018-04-27T08:19:58.428Z,992.68
2018-04-27T08:20:58.389Z,992.67
2018-04-27T08:21:58.392Z,992.61
2018-04-27T08:22:58.383Z,992.63
2018-04-27T08:23:58.376Z,992.68
2018-04-27T08:24:58.371Z,992.61
2018-04-27T08:25:58.396Z,992.58
2018-04-27T08:26:58.347Z,992.53
2018-04-27T08:27:58.334Z,992.51
2018-04-27T08:28:58.335Z,992.52
2018-04-27T08:29:58.341Z,992.54
2018-04-27T08:30:58.328Z,992.44
2018-04-27T08:31:58.302Z,992.48
2018-04-27T08:32:58.297Z,992.50
2018-04-27T08:33:58.284Z,992.49
2018-04-27T08:34:58.302Z,992.42
2018-04-27T08:35:58.287Z,992.40
2018-04-27T08:36:58.264Z,992.40
2018-04-27T08:37:58.253Z,992.48
2018-04-27T08:38:58.254Z,992.39
2018-04-27T08:39:58.237Z,992.41
2018-04-27T08:40:58.250Z,992.34
2018-04-27T08:41:58.227Z,992.33
2018-04-27T08:42:58.315Z,992.31
2018-04-27T08:43:58.215Z,992.34
2018-04-27T08:44:58.202Z,992.27
2018-04-27T08:45:58.190Z,992.27
2018-04-27T08:46:58.202Z,992.32
2018-04-27T08:47:58.184Z,992.32
2018-04-27T08:48:58.167Z,992.27
2018-04-27T08:49:58.164Z,992.29
2018-04-27T08:50:58.161Z,992.23
2018-04-27T08:51:58.148Z,992.21
2018-04-27T08:52:58.141Z,992.24
2018-04-27T08:53:58.142Z,992.17
2018-04-27T08:54:58.132Z,992.19
2018-04-27T08:55:58.120Z,992.15
2018-04-27T08:56:58.114Z,992.21
2018-04-27T08:57:58.099Z,992.27
2018-04-27T08:58:58.116Z,992.27
2018-04-27T08:59:58.093Z,992.18
2018-04-27T09:00:58.072Z,992.21
2018-04-27T09:01:58.079Z,992.18
2018-04-27T09:02:58.066Z,992.18
2018-04-27T09:03:58.062Z,992.21
2018-04-27T09:04:58.047Z,992.15
2018-04-27T09:05:58.032Z,992.18
2018-04-27T09:06:58.024Z,992.15
2018-04-27T09:07:58.043Z,992.15
2018-04-27T09:08:58.017Z,992.13
2018-04-27T09:09:58.012Z,992.12
2018-04-27T09:10:57.998Z,992.12
2018-04-27T09:11:57.979Z,992.08
2018-04-27T09:12:57.976Z,992.15
2018-04-27T09:13:57.966Z,992.10
2018-04-27T09:14:57.963Z,992.12
2018-04-27T09:15:57.960Z,992.08
2018-04-27T09:16:57.950Z,992.01
2018-04-27T09:17:57.938Z,992.00
2018-04-27T09:18:57.931Z,991.95
2018-04-27T09:19:57.921Z,991.98
2018-04-27T09:20:57.927Z,991.99
2018-04-27T09:21:57.915Z,991.93
2018-04-27T09:22:57.896Z,992.00
2018-04-27T09:23:57.889Z,991.95
2018-04-27T09:24:57.877Z,991.89
2018-04-27T09:25:57.874Z,991.89
2018-04-27T09:26:57.920Z,991.91
2018-04-27T09:27:57.853Z,991.92
2018-04-27T09:28:57.867Z,991.93
2018-04-27T09:29:57.844Z,991.88
2018-04-27T09:30:57.835Z,991.86
2018-04-27T09:31:57.831Z,991.87
2018-04-27T09:32:57.825Z,991.84
2018-04-27T09:33:57.805Z,991.83
2018-04-27T09:34:57.815Z,991.77
2018-04-27T09:35:57.816Z,991.80
2018-04-27T09:36:57.792Z,991.80
2018-04-27T09:37:57.783Z,991.79
2018-04-27T09:38:57.780Z,991.78
2018-04-27T09:39:57.780Z,991.77
2018-04-27T09:40:57.789Z,991.75
2018-04-27T09:41:57.780Z,991.84
2018-04-27T09:42:57.761Z,991.76
2018-04-27T09:43:57.741Z,991.67
2018-04-27T09:44:57.742Z,991.80
2018-04-27T09:45:57.723Z,991.85
2018-04-27T09:46:57.719Z,991.74
2018-04-27T09:47:57.712Z,991.74
2018-04-27T09:48:57.709Z,991.66
2018-04-27T09:49:57.708Z,991.66
2018-04-27T09:50:57.694Z,991.58
2018-04-27T09:51:57.678Z,991.60
2018-04-27T09:52:57.675Z,991.58
2018-04-27T09:53:57.671Z,991.64
2018-04-27T09:54:57.661Z,991.64
2018-04-27T09:55:57.653Z,991.56
2018-04-27T09:56:57.654Z,991.55
2018-04-27T09:57:57.640Z,991.57
2018-04-27T09:58:57.630Z,991.64
2018-04-27T09:59:57.630Z,991.60
2018-04-27T10:00:57.620Z,991.59
2018-04-27T10:01:57.617Z,991.58
2018-04-27T10:02:57.608Z,991.58
2018-04-27T10:03:57.604Z,991.57
2018-04-27T10:04:57.598Z,991.58
2018-04-27T10:05:57.585Z,991.55
2018-04-27T10:06:57.581Z,991.55
2018-04-27T10:07:57.581Z,991.51
2018-04-27T10:08:57.575Z,991.51
2018-04-27T10:09:57.562Z,991.46
2018-04-27T10:10:57.551Z,991.42
2018-04-27T10:11:57.555Z,991.40
2018-04-27T10:12:57.550Z,991.43
2018-04-27T10:13:57.531Z,991.45
2018-04-27T10:14:57.552Z,991.39
2018-04-27T10:15:57.525Z,991.33
2018-04-27T10:16:57.521Z,991.41
2018-04-27T10:17:57.528Z,991.35
2018-04-27T10:18:57.514Z,991.34
2018-04-27T10:19:57.509Z,991.30
2018-04-27T10:20:57.509Z,991.26
2018-04-27T10:21:57.496Z,991.24
2018-04-27T10:22:57.516Z,991.22
2018-04-27T10:23:57.504Z,991.27
2018-04-27T10:24:57.492Z,991.26
2018-04-27T10:25:57.484Z,991.28
2018-04-27T10:26:57.497Z,991.25
2018-04-27T10:27:57.479Z,991.21
2018-04-27T10:28:57.475Z,991.26
2018-04-27T10:29:57.468Z,991.11
2018-04-27T10:30:57.512Z,991.07
2018-04-27T10:31:57.477Z,991.10
2018-04-27T10:32:57.458Z,991.02
2018-04-27T10:33:57.455Z,991.04
2018-04-27T10:34:57.454Z,991.00
2018-04-27T10:35:57.438Z,991.00
2018-04-27T10:36:57.450Z,990.96
2018-04-27T10:37:57.442Z,990.92
2018-04-27T10:38:57.434Z,990.94
2018-04-27T10:39:57.445Z,990.91
2018-04-27T10:40:57.440Z,990.91
2018-04-27T10:41:57.434Z,990.92
2018-04-27T10:42:57.427Z,990.90
2018-04-27T10:43:57.444Z,990.88
2018-04-27T10:44:57.430Z,990.89
2018-04-27T10:45:57.421Z,990.79
2018-04-27T10:46:57.421Z,990.77
2018-04-27T10:47:57.428Z,990.76
2018-04-27T10:48:57.427Z,990.72
2018-04-27T10:49:57.416Z,990.72
2018-04-27T10:50:57.415Z,990.67
2018-04-27T10:51:57.436Z,990.65
2018-04-27T10:52:57.408Z,990.61
2018-04-27T10:53:57.408Z,990.66
2018-04-27T10:54:57.405Z,990.66
2018-04-27T10:55:57.415Z,990.61
2018-04-27T10:56:57.405Z,990.58
2018-04-27T10:57:57.408Z,990.54
2018-04-27T10:58:57.402Z,990.53
2018-04-27T10:59:57.405Z,990.54
2018-04-27T11:00:57.406Z,990.57
2018-04-27T11:01:57.403Z,990.56
2018-04-27T11:02:57.415Z,990.52
2018-04-27T11:03:57.411Z,990.63
2018-04-27T11:04:57.423Z,990.54
2018-04-27T11:05:57.415Z,990.46
2018-04-27T11:06:57.396Z,990.49
2018-04-27T11:07:57.396Z,990.44
2018-04-27T11:08:57.406Z,990.42
2018-04-27T11:09:57.406Z,990.41
2018-04-27T11:10:57.430Z,990.41
2018-04-27T11:11:57.420Z,990.42
2018-04-27T11:12:57.410Z,990.40
2018-04-27T11:13:57.403Z,990.40
2018-04-27T11:14:57.401Z,990.45
2018-04-27T11:15:57.401Z,990.43
2018-04-27T11:16:57.607Z,990.39
2018-04-27T11:17:57.413Z,990.46
2018-04-27T11:18:57.410Z,990.42
2018-04-27T11:19:57.417Z,990.44
2018-04-27T11:20:57.414Z,990.45
2018-04-27T11:21:57.421Z,990.38
2018-04-27T11:22:57.420Z,990.31
2018-04-27T11:23:57.417Z,990.32
2018-04-27T11:24:57.444Z,990.27
2018-04-27T11:25:57.421Z,990.27
2018-04-27T11:26:57.424Z,990.24
2018-04-27T11:27:57.427Z,990.20
2018-04-27T11:28:57.532Z,990.14
2018-04-27T11:29:57.430Z,990.14
2018-04-27T11:30:57.427Z,990.13
2018-04-27T11:31:57.440Z,990.10
2018-04-27T11:32:57.437Z,990.04
2018-04-27T11:33:57.437Z,990.01
2018-04-27T11:34:57.437Z,990.03
2018-04-27T11:35:57.443Z,989.99
2018-04-27T11:36:57.443Z,990.01
2018-04-27T11:37:57.453Z,989.96
2018-04-27T11:38:57.452Z,989.92
2018-04-27T11:39:57.467Z,989.95
2018-04-27T11:40:57.459Z,989.86
2018-04-27T11:41:57.460Z,989.86
2018-04-27T11:42:57.460Z,989.87
2018-04-27T11:43:57.485Z,989.88
2018-04-27T11:44:57.475Z,989.84
2018-04-27T11:45:57.472Z,989.79
2018-04-27T11:46:57.476Z,989.81
2018-04-27T11:47:57.485Z,989.80
2018-04-27T11:48:57.511Z,989.79
2018-04-27T11:49:57.494Z,989.80
2018-04-27T11:50:57.494Z,989.77
2018-04-27T11:51:57.488Z,989.80
2018-04-27T11:52:57.501Z,989.82
2018-04-27T11:53:57.514Z,989.80
2018-04-27T11:54:57.510Z,989.88
2018-04-27T11:55:57.514Z,989.91
2018-04-27T11:56:57.530Z,989.87
2018-04-27T11:57:57.523Z,989.85
2018-04-27T11:58:57.531Z,989.77
2018-04-27T11:59:57.537Z,989.76
2018-04-27T12:00:57.539Z,989.70
2018-04-27T12:01:57.543Z,989.72
2018-04-27T12:02:57.542Z,989.67
2018-04-27T12:03:57.552Z,989.65
2018-04-27T12:04:57.559Z,989.69
2018-04-27T12:05:57.598Z,989.56
2018-04-27T12:06:57.580Z,989.55
2018-04-27T12:07:57.568Z,989.59
2018-04-27T12:08:57.564Z,989.52
2018-04-27T12:09:57.679Z,989.55
2018-04-27T12:10:57.577Z,989.51
2018-04-27T12:11:57.572Z,989.51
2018-04-27T12:12:57.599Z,989.51
2018-04-27T12:13:57.593Z,989.49
2018-04-27T12:14:57.603Z,989.54
2018-04-27T12:15:57.599Z,989.52
2018-04-27T12:16:57.619Z,989.53
2018-04-27T12:17:57.616Z,989.56
2018-04-27T12:18:57.654Z,989.61
2018-04-27T12:19:57.651Z,989.55
2018-04-27T12:20:57.651Z,989.62
2018-04-27T12:21:57.642Z,989.54
2018-04-27T12:22:57.638Z,989.53
2018-04-27T12:23:57.641Z,989.54
2018-04-27T12:24:57.644Z,989.47
2018-04-27T12:25:57.688Z,989.43
2018-04-27T12:26:57.648Z,989.50
2018-04-27T12:27:57.657Z,989.46